Time;durP1;ratioP1;P1;durP2;ratioP2;P2;SDS_P1;SDS_P2;PMS_P1;PMS_P2;Temp;Humidity;BMP_temperature;BMP_pressure;BME280_temperature;BME280_humidity;BME280_pressure;Samples;Min_cycle;Max_cycle;Signal;HPM_P1;HPM_P2
2022/04/12 00:00:34;;;;;;;25.45;13.70;;;;;;;3.90;86.17;100471.75;6296063;28;20059;-77
2022/04/12 00:03:35;;;;;;;24.13;14.35;;;;;;;3.93;88.61;100469.09;6295923;28;20127;-71
2022/04/12 00:06:36;;;;;;;26.17;13.95;;;;;;;3.92;87.20;100472.56;6262145;28;20570;-71
2022/04/12 00:09:37;;;;;;;19.35;12.75;;;;;;;3.86;86.16;100475.31;6295379;28;20098;-71
2022/04/12 00:12:38;;;;;;;22.45;13.18;;;;;;;3.73;85.23;100473.94;6295407;28;20056;-76
2022/04/12 00:15:39;;;;;;;22.42;12.95;;;;;;;3.68;88.30;100473.19;6295626;28;20757;-76
2022/04/12 00:21:59;;;;;;;23.88;13.13;;;;;;;3.60;85.94;100465.66;6296279;28;20055;-71
2022/04/12 00:25:00;;;;;;;22.40;13.25;;;;;;;3.63;88.03;100460.41;6295121;28;20056;-71
2022/04/12 00:28:01;;;;;;;22.33;12.60;;;;;;;3.60;88.77;100456.19;6296204;28;20049;-71
2022/04/12 00:31:02;;;;;;;23.75;13.63;;;;;;;3.54;88.96;100452.91;6278567;28;20071;-71
2022/04/12 00:34:03;;;;;;;23.45;12.85;;;;;;;3.57;88.78;100460.56;6278180;28;20052;-71
2022/04/12 00:37:04;;;;;;;22.60;12.23;;;;;;;3.57;87.77;100451.09;6295043;28;20480;-71
2022/04/12 00:40:05;;;;;;;20.38;11.93;;;;;;;3.53;88.74;100453.81;6294058;28;20055;-71
2022/04/12 00:43:06;;;;;;;21.40;12.30;;;;;;;3.50;89.88;100440.97;6296334;28;20055;-76
2022/04/12 00:46:07;;;;;;;20.08;12.05;;;;;;;3.53;89.55;100443.47;6278656;28;20052;-76
2022/04/12 00:49:08;;;;;;;23.13;11.50;;;;;;;3.47;89.06;100441.91;6278503;28;20063;-76
2022/04/12 00:52:10;;;;;;;18.50;10.85;;;;;;;3.39;90.42;100439.50;6295274;28;20048;-76
2022/04/12 00:55:11;;;;;;;24.55;10.65;;;;;;;3.32;87.51;100437.13;6296362;28;20040;-76
2022/04/12 00:58:12;;;;;;;17.65;10.57;;;;;;;3.34;88.93;100443.09;6295110;28;20039;-71
2022/04/12 01:01:13;;;;;;;19.83;11.18;;;;;;;3.34;89.43;100436.22;6295992;28;20044;-72
2022/04/12 01:04:14;;;;;;;16.05;10.32;;;;;;;3.22;88.10;100439.09;6295138;28;20048;-76
2022/04/12 01:07:15;;;;;;;18.45;9.93;;;;;;;3.25;89.05;100440.75;6295014;28;20044;-76
2022/04/12 01:10:16;;;;;;;13.60;8.77;;;;;;;3.15;90.32;100435.81;6295081;28;20136;-71
2022/04/12 01:13:16;;;;;;;16.08;8.60;;;;;;;3.11;89.88;100439.38;6295458;28;20056;-71
2022/04/12 01:16:18;;;;;;;14.07;9.00;;;;;;;3.08;90.45;100448.88;6295952;28;20146;-71
2022/04/12 01:19:19;;;;;;;15.85;10.20;;;;;;;3.02;90.61;100439.56;6294691;28;20376;-71
2022/04/12 01:22:24;;;;;;;16.67;9.50;;;;;;;3.01;89.73;100450.78;6297787;28;20057;-71
2022/04/12 01:25:25;;;;;;;15.45;8.95;;;;;;;3.02;90.47;100450.72;6300596;28;20044;-71
2022/04/12 01:28:26;;;;;;;13.20;8.43;;;;;;;2.98;91.08;100445.69;6299008;28;20143;-71
2022/04/12 01:31:27;;;;;;;18.02;9.20;;;;;;;2.97;90.25;100447.41;6299205;28;20053;-71
2022/04/12 01:34:28;;;;;;;14.10;8.43;;;;;;;2.93;90.19;100448.38;6300009;28;20048;-71
2022/04/12 01:37:29;;;;;;;14.90;8.48;;;;;;;2.71;87.83;100448.00;6300093;28;20485;-71
2022/04/12 01:40:30;;;;;;;14.75;8.82;;;;;;;2.79;87.53;100442.69;6315724;28;20106;-71
2022/04/12 01:43:31;;;;;;;15.50;8.40;;;;;;;2.86;89.07;100445.97;6298645;28;20056;-71
2022/04/12 01:46:31;;;;;;;12.48;8.00;;;;;;;2.76;89.89;100451.34;6298769;28;20037;-71
2022/04/12 01:49:32;;;;;;;11.88;7.65;;;;;;;2.70;91.69;100448.03;6281827;28;20080;-71
2022/04/12 01:52:34;;;;;;;12.25;8.02;;;;;;;2.66;91.05;100456.69;6315452;28;20469;-70
2022/04/12 01:55:35;;;;;;;15.43;8.73;;;;;;;2.59;92.66;100437.97;6315391;28;20041;-71
2022/04/12 01:58:36;;;;;;;11.52;7.82;;;;;;;2.59;92.51;100438.84;6299829;28;20093;-71
2022/04/12 02:01:36;;;;;;;12.20;7.65;;;;;;;2.57;92.09;100430.28;6310148;28;20063;-71
2022/04/12 02:04:37;;;;;;;15.45;8.65;;;;;;;2.52;91.65;100436.41;6323439;28;20452;-71
2022/04/12 02:07:40;;;;;;;14.20;7.80;;;;;;;2.54;91.83;100432.91;6323370;28;20036;-71
2022/04/12 02:10:41;;;;;;;11.40;7.20;;;;;;;2.57;91.43;100437.16;6323146;28;20109;-71
2022/04/12 02:13:42;;;;;;;12.73;7.30;;;;;;;2.53;91.56;100427.78;6323245;28;20048;-71
2022/04/12 02:16:43;;;;;;;15.43;7.95;;;;;;;2.54;91.48;100440.66;6306375;28;20052;-73
2022/04/12 02:19:44;;;;;;;15.02;7.97;;;;;;;2.52;92.85;100426.13;6306447;28;20139;-71
2022/04/12 02:22:44;;;;;;;17.63;7.90;;;;;;;2.51;92.13;100427.84;6324292;28;20421;-72
2022/04/12 02:25:45;;;;;;;11.82;7.55;;;;;;;2.42;91.33;100431.44;6306167;28;20408;-71
2022/04/12 02:28:46;;;;;;;12.63;7.80;;;;;;;2.27;90.75;100429.22;6323968;28;20048;-71
2022/04/12 02:31:47;;;;;;;15.13;9.50;;;;;;;2.32;91.17;100432.53;6288715;28;20526;-71
2022/04/12 02:34:48;;;;;;;11.30;7.82;;;;;;;2.32;90.47;100424.78;6305267;28;20086;-71
2022/04/12 02:37:49;;;;;;;13.73;7.97;;;;;;;2.35;89.77;100419.59;6322809;28;20039;-71
2022/04/12 02:40:49;;;;;;;14.23;8.38;;;;;;;2.38;89.92;100419.50;6305758;28;20408;-71
2022/04/12 02:43:50;;;;;;;15.98;8.30;;;;;;;2.30;91.81;100428.28;6305733;28;20040;-71
2022/04/12 02:46:51;;;;;;;14.05;7.82;;;;;;;2.29;92.98;100427.44;6305599;28;20059;-70
2022/04/12 02:49:53;;;;;;;11.85;7.68;;;;;;;2.25;93.84;100430.13;6305697;28;20044;-72
2022/04/12 02:52:53;;;;;;;15.73;9.30;;;;;;;2.13;95.98;100431.22;6323885;28;20040;-76
2022/04/12 02:55:54;;;;;;;15.40;8.63;;;;;;;2.12;96.39;100432.09;6323941;28;20040;-76
2022/04/12 02:58:55;;;;;;;14.75;8.77;;;;;;;2.11;94.77;100430.41;6323851;28;20052;-76
2022/04/12 03:01:56;;;;;;;13.50;8.52;;;;;;;2.06;94.49;100432.22;6322587;28;20142;-76
2022/04/12 03:04:57;;;;;;;13.75;8.55;;;;;;;1.94;95.64;100428.16;6322811;28;20067;-76
2022/04/12 03:07:58;;;;;;;15.35;8.52;;;;;;;1.98;94.48;100433.22;6322349;28;20448;-71
2022/04/12 03:10:59;;;;;;;14.27;8.65;;;;;;;1.95;94.24;100432.41;6321985;28;20059;-71
2022/04/12 03:13:59;;;;;;;16.42;9.85;;;;;;;1.91;92.04;100438.50;6321865;28;20456;-71
2022/04/12 03:17:00;;;;;;;16.40;9.35;;;;;;;1.81;95.66;100443.84;6304698;28;20052;-71
2022/04/12 03:20:01;;;;;;;15.00;9.55;;;;;;;1.84;95.75;100454.97;6321834;28;20087;-76
2022/04/12 03:23:02;;;;;;;16.77;9.63;;;;;;;1.71;95.94;100462.03;6322164;28;20040;-76
2022/04/12 03:26:03;;;;;;;16.13;9.30;;;;;;;1.53;96.31;100464.06;6323130;28;20073;-76
2022/04/12 03:29:04;;;;;;;16.48;9.65;;;;;;;1.57;97.33;100459.72;6321840;28;20097;-71
2022/04/12 03:32:05;;;;;;;15.40;10.05;;;;;;;1.57;97.07;100460.56;6304546;28;20436;-71
2022/04/12 03:35:06;;;;;;;16.02;9.05;;;;;;;1.58;97.52;100458.81;6322694;28;20048;-75
2022/04/12 03:38:07;;;;;;;15.73;9.15;;;;;;;1.59;96.62;100463.97;6321035;28;20088;-76
2022/04/12 03:41:18;;;;;;;18.02;9.15;;;;;;;1.50;96.99;100461.53;6320458;28;20396;-72
2022/04/12 03:44:19;;;;;;;16.67;9.52;;;;;;;1.41;96.25;100471.97;6322148;28;20048;-76
2022/04/12 03:47:20;;;;;;;15.18;9.88;;;;;;;1.33;96.73;100466.97;6304716;28;20051;-76
2022/04/12 03:50:22;;;;;;;16.33;9.93;;;;;;;1.30;98.45;100476.47;6338343;28;20181;-76
2022/04/12 03:53:22;;;;;;;20.48;12.38;;;;;;;1.27;98.65;100482.50;6321505;28;20481;-76
2022/04/12 03:56:24;;;;;;;18.73;10.48;;;;;;;1.25;96.73;100486.81;6321383;28;20070;-76
2022/04/12 03:59:24;;;;;;;21.30;11.27;;;;;;;1.23;97.74;100480.00;6322341;28;20495;-76
2022/04/12 04:02:25;;;;;;;21.52;11.60;;;;;;;1.20;97.37;100483.47;6322399;28;20045;-76
2022/04/12 04:05:26;;;;;;;19.30;11.07;;;;;;;1.36;96.98;100484.94;6320902;28;20128;-71
2022/04/12 04:08:27;;;;;;;22.88;10.93;;;;;;;1.36;98.01;100496.91;6321683;28;20557;-71
2022/04/12 04:11:28;;;;;;;22.23;12.25;;;;;;;1.38;98.42;100498.59;6303529;28;20064;-71
2022/04/12 04:14:31;;;;;;;21.58;11.52;;;;;;;1.39;98.65;100490.00;6303289;28;20056;-71
2022/04/12 04:17:32;;;;;;;15.95;10.77;;;;;;;1.44;99.19;100489.91;6321016;28;20046;-76
2022/04/12 04:20:33;;;;;;;18.60;11.02;;;;;;;1.43;99.46;100490.81;6298774;28;20052;-76
2022/04/12 04:23:34;;;;;;;18.20;10.55;;;;;;;1.45;99.20;100498.50;6303935;28;20044;-76
2022/04/12 04:26:35;;;;;;;19.13;10.90;;;;;;;1.49;97.80;100502.72;6321806;28;20101;-76
2022/04/12 04:29:36;;;;;;;24.10;11.15;;;;;;;1.51;96.97;100498.41;6303915;28;20036;-77
2022/04/12 04:32:37;;;;;;;20.77;12.00;;;;;;;1.55;98.69;100503.47;6303914;28;20044;-76
2022/04/12 04:35:38;;;;;;;22.55;13.02;;;;;;;1.53;100.00;100500.06;6320587;28;20051;-76
2022/04/12 04:38:39;;;;;;;24.75;12.73;;;;;;;1.63;99.10;100510.19;6303629;28;20534;-76
2022/04/12 04:41:39;;;;;;;20.27;12.20;;;;;;;1.68;99.00;100508.41;6303567;28;20101;-71
2022/04/12 04:44:40;;;;;;;23.38;11.55;;;;;;;1.69;99.38;100510.97;6320084;28;20036;-71
2022/04/12 04:48:07;;;;;;;30.25;16.27;;;;;;;1.79;98.17;100515.06;6293493;28;20550;-71
2022/04/12 04:51:08;;;;;;;33.10;18.17;;;;;;;1.87;97.45;100525.19;6306661;28;20237;-71
2022/04/12 04:54:09;;;;;;;35.40;18.88;;;;;;;1.96;96.56;100519.06;6316521;28;20050;-71
2022/04/12 04:57:10;;;;;;;29.67;15.65;;;;;;;2.07;96.06;100526.59;6306434;28;20044;-71
2022/04/12 05:00:15;;;;;;;33.55;13.77;;;;;;;2.17;95.87;100528.13;6301167;28;20054;-71
2022/04/12 05:03:15;;;;;;;23.98;13.65;;;;;;;2.21;95.99;100533.16;6298957;28;20059;-71
2022/04/12 05:06:17;;;;;;;33.63;14.30;;;;;;;2.28;95.17;100530.47;6298456;28;20045;-71
2022/04/12 05:09:18;;;;;;;27.08;15.55;;;;;;;2.39;95.01;100533.72;6298399;28;20052;-71
2022/04/12 05:12:19;;;;;;;20.83;11.90;;;;;;;2.59;92.70;100538.44;6299397;28;20055;-70
2022/04/12 05:15:20;;;;;;;20.70;11.88;;;;;;;2.80;90.91;100532.84;6298325;28;20079;-71
2022/04/12 05:18:21;;;;;;;25.23;11.10;;;;;;;2.91;90.39;100527.47;6298307;28;20282;-72
2022/04/12 05:21:22;;;;;;;22.98;12.93;;;;;;;3.04;90.03;100528.03;6297987;28;20048;-72
2022/04/12 05:24:22;;;;;;;26.60;14.25;;;;;;;3.14;88.09;100523.53;6281323;28;20484;-72
2022/04/12 05:27:23;;;;;;;19.52;12.55;;;;;;;3.26;86.88;100530.13;6281139;28;20072;-72
2022/04/12 05:30:24;;;;;;;18.38;11.00;;;;;;;3.34;86.84;100530.81;6297760;28;20041;-72
2022/04/12 05:33:25;;;;;;;20.98;10.88;;;;;;;3.45;86.36;100543.44;6297798;28;20044;-73
2022/04/12 05:36:26;;;;;;;21.05;10.95;;;;;;;3.55;87.30;100550.91;6280939;28;20087;-72
2022/04/12 05:39:27;;;;;;;26.17;14.18;;;;;;;3.65;87.67;100543.81;6264440;28;20132;-73
2022/04/12 05:42:28;;;;;;;25.65;13.57;;;;;;;3.79;85.07;100554.66;6298686;28;20044;-69
2022/04/12 05:45:29;;;;;;;25.02;11.73;;;;;;;3.98;82.79;100562.75;6280896;28;20072;-70
2022/04/12 05:48:30;;;;;;;18.33;11.65;;;;;;;4.08;83.68;100553.06;6297258;28;20041;-70
2022/04/12 05:51:31;;;;;;;18.70;11.02;;;;;;;4.24;84.68;100556.94;6297428;28;20131;-71
2022/04/12 05:54:31;;;;;;;18.33;9.85;;;;;;;4.41;84.86;100558.22;6297262;28;20186;-70
2022/04/12 05:57:35;;;;;;;19.77;8.90;;;;;;;4.62;80.67;100560.19;6297184;28;20515;-70
2022/04/12 06:00:36;;;;;;;20.73;10.50;;;;;;;4.70;79.49;100564.28;6298499;28;20098;-70
2022/04/12 06:03:36;;;;;;;18.05;9.75;;;;;;;4.81;79.12;100570.81;6298411;28;20041;-70
2022/04/12 06:06:41;;;;;;;18.33;9.98;;;;;;;4.86;77.52;100560.38;6280048;28;20052;-72
2022/04/12 06:09:41;;;;;;;19.65;10.63;;;;;;;5.05;80.07;100564.09;6296758;28;20101;-71
2022/04/12 06:12:42;;;;;;;21.58;10.65;;;;;;;5.24;77.38;100571.31;6296662;28;20056;-70
2022/04/12 06:15:43;;;;;;;15.13;9.93;;;;;;;5.32;77.22;100568.50;6298007;28;20040;-70
2022/04/12 06:18:44;;;;;;;28.80;11.57;;;;;;;5.53;76.45;100578.16;6296852;28;20037;-71
2022/04/12 06:21:45;;;;;;;18.48;10.70;;;;;;;5.69;75.27;100567.31;6280056;28;20051;-70
2022/04/12 06:24:46;;;;;;;18.92;9.48;;;;;;;5.83;71.24;100568.56;6263479;28;20101;-70
2022/04/12 06:27:51;;;;;;;15.32;9.57;;;;;;;5.94;70.64;100575.97;6296505;28;20048;-70
2022/04/12 06:30:54;;;;;;;17.70;9.75;;;;;;;6.04;70.61;100577.38;6313265;28;20052;-70
2022/04/12 06:33:55;;;;;;;18.65;10.20;;;;;;;6.13;70.39;100580.56;6307526;28;20037;-70
2022/04/12 06:36:55;;;;;;;17.30;9.18;;;;;;;6.41;70.20;100589.06;6295652;28;20090;-70
2022/04/12 06:39:56;;;;;;;14.38;9.25;;;;;;;6.53;67.23;100585.19;6298402;28;20072;-70
2022/04/12 06:42:59;;;;;;;14.95;8.70;;;;;;;6.66;68.08;100589.03;6308150;28;20052;-71
2022/04/12 06:45:59;;;;;;;15.80;9.25;;;;;;;6.76;65.26;100579.16;6296511;28;20048;-71
2022/04/12 06:49:00;;;;;;;20.08;8.98;;;;;;;6.90;66.65;100581.25;6312860;28;20408;-70
2022/04/12 06:52:01;;;;;;;19.38;9.38;;;;;;;7.16;68.13;100580.25;6296062;28;20049;-70
2022/04/12 06:55:03;;;;;;;16.45;9.35;;;;;;;7.27;66.38;100595.44;6279419;28;20082;-71
2022/04/12 06:58:04;;;;;;;;;;;;;;;7.46;63.78;100601.59;6297154;28;20049;-71
2022/04/12 07:01:05;;;;;;;15.95;8.70;;;;;;;7.61;60.18;100594.94;6313043;28;19926;-71
2022/04/12 07:04:06;;;;;;;17.25;8.23;;;;;;;7.75;62.86;100596.16;6295847;28;20071;-71
2022/04/12 07:07:07;;;;;;;14.18;8.25;;;;;;;7.85;63.44;100603.50;6312579;28;20040;-71
2022/04/12 07:10:10;;;;;;;11.63;7.18;;;;;;;8.06;57.58;100604.34;6331175;28;20046;-71
2022/04/12 07:13:11;;;;;;;12.25;6.80;;;;;;;8.21;59.36;100597.66;6337521;28;20056;-71
2022/04/12 07:16:12;;;;;;;14.43;7.68;;;;;;;8.45;60.63;100608.81;6320635;28;20414;-71
2022/04/12 07:19:13;;;;;;;11.05;7.13;;;;;;;8.72;57.72;100607.66;6302925;28;20040;-71
2022/04/12 07:22:14;;;;;;;11.07;6.70;;;;;;;8.66;55.95;100613.97;6321905;28;20097;-71
2022/04/12 07:25:17;;;;;;;16.83;6.80;;;;;;;8.84;55.54;100607.97;6303810;28;20051;-71
2022/04/12 07:28:18;;;;;;;11.23;6.90;;;;;;;9.12;57.40;100611.94;6303644;28;20044;-71
2022/04/12 07:31:18;;;;;;;12.32;6.68;;;;;;;9.29;54.29;100618.94;6303450;28;20059;-70
2022/04/12 07:34:19;;;;;;;13.60;6.43;;;;;;;9.35;56.33;100612.59;6337183;28;20048;-76
2022/04/12 07:37:20;;;;;;;12.00;6.55;;;;;;;9.36;52.27;100609.09;6320228;28;20045;-75
2022/04/12 07:40:21;;;;;;;11.30;6.15;;;;;;;9.58;53.11;100614.13;6337143;28;20567;-76
2022/04/12 07:43:22;;;;;;;6.18;4.88;;;;;;;9.81;51.73;100618.22;6303260;28;20086;-76
2022/04/12 07:46:23;;;;;;;22.05;6.45;;;;;;;10.13;51.70;100616.63;6320049;28;20091;-75
2022/04/12 07:49:23;;;;;;;12.60;6.25;;;;;;;10.37;52.54;100611.94;6302975;28;20044;-76
2022/04/12 07:52:24;;;;;;;12.40;5.57;;;;;;;10.45;50.49;100616.78;6303250;28;20480;-71
2022/04/12 07:55:25;;;;;;;10.82;6.03;;;;;;;10.56;51.65;100617.06;6336723;28;20047;-71
2022/04/12 07:58:26;;;;;;;13.32;5.65;;;;;;;10.87;50.02;100615.44;6320865;28;20036;-71
2022/04/12 08:01:27;;;;;;;8.60;5.65;;;;;;;11.04;48.66;100615.41;6319667;28;20052;-71
2022/04/12 08:04:28;;;;;;;7.50;5.35;;;;;;;11.16;49.02;100613.91;6319690;28;20040;-70
2022/04/12 08:07:28;;;;;;;7.65;4.70;;;;;;;11.35;48.49;100618.13;6301461;28;20626;-71
2022/04/12 08:10:29;;;;;;;7.40;4.00;;;;;;;11.57;46.34;100615.13;6306758;28;20048;-70
2022/04/12 08:13:31;;;;;;;6.35;3.88;;;;;;;11.54;42.21;100612.72;6295304;28;20079;-70
2022/04/12 08:16:32;;;;;;;6.53;3.78;;;;;;;11.46;45.20;100610.50;6295507;28;20105;-70
2022/04/12 08:19:33;;;;;;;6.72;4.38;;;;;;;11.69;43.29;100609.22;6311012;28;20463;-76
2022/04/12 08:22:34;;;;;;;6.72;4.05;;;;;;;11.83;45.20;100608.44;6294278;28;20084;-72
2022/04/12 08:25:35;;;;;;;7.07;4.22;;;;;;;11.86;45.01;100611.72;6294053;28;20056;-72
2022/04/12 08:28:36;;;;;;;7.50;4.43;;;;;;;11.92;44.06;100602.69;6294087;28;20511;-72
2022/04/12 08:31:37;;;;;;;8.13;3.97;;;;;;;12.03;42.98;100602.09;6310878;28;20040;-71
2022/04/12 08:34:37;;;;;;;5.43;2.90;;;;;;;12.15;42.50;100604.00;6294079;28;20068;-71
2022/04/12 08:37:38;;;;;;;5.75;2.92;;;;;;;12.51;42.03;100605.34;6293769;28;20450;-72
2022/04/12 08:40:43;;;;;;;3.58;2.50;;;;;;;12.20;36.21;100606.31;6295267;28;20044;-71
2022/04/12 08:43:44;;;;;;;6.38;2.70;;;;;;;12.30;39.78;100600.44;6293627;28;20500;-76
2022/04/12 08:46:46;;;;;;;4.18;2.95;;;;;;;12.58;40.00;100600.56;6316605;28;20139;-76
2022/04/12 08:49:47;;;;;;;5.25;3.13;;;;;;;12.83;38.00;100598.16;6313978;28;20102;-77
2022/04/12 08:52:49;;;;;;;4.78;2.72;;;;;;;12.96;39.98;100595.59;6320225;28;20037;-71
2022/04/12 08:55:50;;;;;;;5.95;3.10;;;;;;;13.38;38.88;100596.47;6285581;28;20055;-71
2022/04/12 08:58:51;;;;;;;3.83;2.60;;;;;;;13.40;39.23;100593.75;6318666;28;20055;-71
2022/04/12 09:01:52;;;;;;;4.32;2.75;;;;;;;13.57;38.27;100590.91;6320065;28;20408;-70
2022/04/12 09:04:53;;;;;;;3.55;2.50;;;;;;;13.96;36.36;100590.97;6318559;28;20048;-71
2022/04/12 09:07:55;;;;;;;7.15;2.97;;;;;;;14.02;36.43;100599.31;6318702;28;20510;-71
2022/04/12 09:10:58;;;;;;;4.15;2.65;;;;;;;13.88;36.58;100586.25;6319735;28;20096;-71
2022/04/12 09:14:00;;;;;;;5.55;2.38;;;;;;;14.14;33.30;100589.75;6318532;28;20135;-77
2022/04/12 09:17:02;;;;;;;5.68;3.00;;;;;;;13.87;36.51;100582.78;6335507;28;20037;-71
2022/04/12 09:20:13;;;;;;;3.83;2.75;;;;;;;14.54;34.84;100581.78;6319417;28;20467;-71
2022/04/12 09:23:15;;;;;;;8.13;2.47;;;;;;;13.95;31.67;100578.81;6294557;28;20146;-71
2022/04/12 09:26:27;;;;;;;5.82;3.13;;;;;;;13.47;32.76;100572.28;6310609;28;20500;-71
2022/04/12 09:29:30;;;;;;;;;;;;;;;12.95;34.13;100580.84;6293796;28;20048;-71
2022/04/12 09:32:36;;;;;;;5.35;2.97;;;;;;;13.90;35.01;100592.25;6310151;28;19927;-71
2022/04/12 09:35:38;;;;;;;4.22;2.60;;;;;;;13.32;36.34;100583.75;6294452;28;20056;-77
2022/04/12 09:38:41;;;;;;;6.57;4.03;;;;;;;12.43;37.24;100592.69;6310174;28;20048;-77
2022/04/12 09:41:42;;;;;;;3.95;2.65;;;;;;;12.91;37.36;100589.81;6334864;28;20044;-77
2022/04/12 09:44:43;;;;;;;6.72;3.10;;;;;;;12.27;35.86;100582.34;6305040;28;20102;-77
2022/04/12 09:47:47;;;;;;;5.25;2.88;;;;;;;12.03;36.64;100589.84;6305611;28;20056;-78
2022/04/12 09:50:49;;;;;;;4.45;2.92;;;;;;;11.90;36.32;100594.09;6322965;28;20037;-77
2022/04/12 09:53:51;;;;;;;6.40;2.60;;;;;;;11.91;37.30;100590.56;6304972;28;20052;-72
2022/04/12 09:56:57;;;;;;;4.05;2.65;;;;;;;12.06;35.99;100586.19;6323111;28;20040;-71
2022/04/12 09:59:58;;;;;;;4.50;2.78;;;;;;;12.68;35.75;100593.84;6305410;28;20052;-73
2022/04/12 10:03:04;;;;;;;4.38;2.75;;;;;;;13.67;33.43;100588.50;6272147;28;20131;-77
2022/04/12 10:06:07;;;;;;;5.25;2.50;;;;;;;13.96;33.92;100589.22;6339252;28;20032;-72
2022/04/12 10:09:11;;;;;;;2.88;2.20;;;;;;;14.29;32.93;100588.72;6321933;28;20071;-72
2022/04/12 10:12:12;;;;;;;3.05;2.10;;;;;;;14.96;29.91;100579.75;6339118;28;20488;-72
2022/04/12 10:15:13;;;;;;;8.40;2.50;;;;;;;15.02;29.86;100573.22;6321939;28;20060;-72
2022/04/12 10:18:19;;;;;;;5.32;2.55;;;;;;;15.24;31.15;100578.63;6338843;28;20052;-72
2022/04/12 10:21:26;;;;;;;6.25;2.42;;;;;;;15.36;29.05;100576.03;6315754;28;20067;-72
2022/04/12 10:24:27;;;;;;;3.85;1.90;;;;;;;15.17;29.97;100561.59;6322902;28;20373;-72
2022/04/12 10:27:30;;;;;;;5.60;2.03;;;;;;;14.80;31.09;100576.53;6323221;28;20040;-72
2022/04/12 10:30:32;;;;;;;7.97;2.25;;;;;;;14.54;30.09;100578.31;6316853;28;20067;-73
2022/04/12 10:33:34;;;;;;;3.33;1.65;;;;;;;13.22;31.02;100575.63;6338705;28;20048;-72
2022/04/12 10:36:54;;;;;;;;;;;;;;;13.56;31.29;100555.13;6322387;28;20036;-77
2022/04/12 10:40:04;;;;;;;5.50;2.05;;;;;;;14.21;28.56;100559.53;6304855;28;19997;-77
2022/04/12 10:43:05;;;;;;;2.72;1.70;;;;;;;14.75;27.27;100553.22;6296308;28;20060;-77
2022/04/12 10:46:11;;;;;;;3.38;2.10;;;;;;;15.03;28.54;100538.09;6303158;28;20464;-78
2022/04/12 10:49:12;;;;;;;4.38;2.00;;;;;;;15.37;30.36;100533.88;6321024;28;20101;-77
2022/04/12 10:52:13;;;;;;;2.88;1.60;;;;;;;15.69;27.35;100535.91;6338222;28;20052;-72
2022/04/12 10:55:18;;;;;;;4.30;1.90;;;;;;;14.93;27.28;100544.97;6321286;28;20040;-73
2022/04/12 10:58:30;;;;;;;2.28;1.65;;;;;;;15.66;26.04;100534.34;6321029;28;20051;-72
2022/04/12 11:01:32;;;;;;;;;;;;;;;15.70;27.50;100532.31;6322502;28;20044;-78
2022/04/12 11:04:33;;;;;;;3.17;1.38;;;;;;;16.02;27.07;100535.19;6320991;28;19920;-78
2022/04/12 11:07:36;;;;;;;3.10;1.55;;;;;;;16.04;26.36;100532.41;6320888;28;20494;-72
2022/04/12 11:10:37;;;;;;;3.35;1.52;;;;;;;15.22;26.90;100529.75;6303862;28;20039;-72
2022/04/12 11:13:38;;;;;;;5.10;1.65;;;;;;;15.80;26.70;100530.69;6320437;28;20071;-72
2022/04/12 11:16:49;;;;;;;2.88;1.65;;;;;;;16.59;25.65;100532.56;6321946;28;20100;-78
2022/04/12 11:19:51;;;;;;;5.13;2.37;;;;;;;16.45;27.40;100528.38;6320531;28;20040;-78
2022/04/12 11:22:59;;;;;;;5.32;1.98;;;;;;;16.48;25.72;100525.53;6303620;28;20060;-78
2022/04/12 11:26:40;;;;;;;4.60;2.17;;;;;;;16.10;27.78;100532.81;6271239;28;20139;-72
2022/04/12 11:29:43;;;;;;;2.17;1.70;;;;;;;16.01;26.73;100536.13;6320033;28;20059;-78
2022/04/12 11:32:43;;;;;;;2.35;1.70;;;;;;;15.99;27.98;100531.94;6321313;28;20064;-77
2022/04/12 11:35:45;;;;;;;3.50;2.00;;;;;;;15.97;28.82;100524.16;6337042;28;20048;-77
2022/04/12 11:38:47;;;;;;;3.28;2.10;;;;;;;16.25;26.92;100533.41;6337017;28;20055;-77
2022/04/12 11:41:48;;;;;;;3.63;1.95;;;;;;;15.09;29.14;100527.16;6303141;28;20511;-78
2022/04/12 11:44:54;;;;;;;9.60;2.00;;;;;;;15.73;28.59;100515.50;6320094;28;20066;-78
2022/04/12 11:47:57;;;;;;;3.38;1.98;;;;;;;16.11;28.64;100528.38;6303072;28;20055;-72
2022/04/12 11:51:03;;;;;;;4.32;2.20;;;;;;;16.49;27.59;100512.25;6320938;28;20036;-78
2022/04/12 11:54:24;;;;;;;4.80;2.30;;;;;;;15.82;27.38;100526.16;6336897;28;20052;-72
2022/04/12 11:57:25;;;;;;;4.53;2.25;;;;;;;15.84;26.29;100526.88;6320779;28;20047;-77
2022/04/12 12:00:26;;;;;;;4.90;2.38;;;;;;;15.77;26.78;100520.41;6336501;28;20047;-78
2022/04/12 12:03:28;;;;;;;4.63;1.98;;;;;;;15.13;26.58;100522.50;6319672;28;20083;-72
2022/04/12 12:06:29;;;;;;;1.98;1.60;;;;;;;15.38;24.41;100521.53;6336195;28;20047;-78
2022/04/12 12:09:30;;;;;;;5.47;1.88;;;;;;;15.79;27.93;100522.91;6320746;28;20082;-72
2022/04/12 12:12:32;;;;;;;4.07;1.88;;;;;;;15.99;27.33;100510.88;6319009;28;20424;-77
2022/04/12 12:15:34;;;;;;;5.85;2.20;;;;;;;16.25;27.09;100516.78;6302459;28;20054;-73
2022/04/12 12:18:45;;;;;;;3.95;2.10;;;;;;;16.22;27.31;100514.38;6319197;28;20054;-73
2022/04/12 12:21:46;;;;;;;4.13;1.92;;;;;;;16.11;26.45;100505.50;6320564;28;20422;-77
2022/04/12 12:24:55;;;;;;;3.90;1.90;;;;;;;15.68;26.85;100507.91;6318912;28;20048;-72
2022/04/12 12:27:56;;;;;;;3.63;2.03;;;;;;;15.21;28.97;100501.75;6319223;28;20074;-78
2022/04/12 12:31:00;;;;;;;6.80;2.40;;;;;;;14.64;29.12;100500.59;6301962;28;20044;-72
2022/04/12 12:34:01;;;;;;;4.15;1.90;;;;;;;15.40;27.53;100490.72;6318941;28;20048;-72
2022/04/12 12:37:07;;;;;;;6.80;2.30;;;;;;;15.50;26.54;100497.84;6302054;28;20054;-72
2022/04/12 12:40:22;;;;;;;2.90;1.95;;;;;;;15.69;31.47;100488.56;6316703;28;20048;-78
2022/04/12 12:43:27;;;;;;;5.45;1.88;;;;;;;15.84;27.31;100487.41;6304370;28;20523;-72
2022/04/12 12:46:32;;;;;;;7.15;2.00;;;;;;;15.58;28.01;100488.53;6325065;28;20040;-72
2022/04/12 12:49:38;;;;;;;3.78;2.20;;;;;;;15.69;27.78;100484.13;6295837;28;20044;-72
2022/04/12 12:52:39;;;;;;;4.07;2.30;;;;;;;16.51;28.11;100491.03;6297614;28;20484;-73
2022/04/12 12:55:43;;;;;;;3.65;2.40;;;;;;;17.03;26.67;100486.06;6299160;28;20056;-73
2022/04/12 12:58:44;;;;;;;2.90;1.90;;;;;;;17.01;27.01;100477.44;6277326;28;20117;-73
2022/04/12 13:01:55;;;;;;;3.95;2.30;;;;;;;16.54;26.51;100472.38;6297743;28;20498;-72
2022/04/12 13:04:56;;;;;;;2.35;1.92;;;;;;;16.34;27.14;100481.81;6319926;28;20115;-72
2022/04/12 13:07:59;;;;;;;4.38;1.88;;;;;;;15.65;27.52;100479.22;6297174;28;20045;-78
2022/04/12 13:11:02;;;;;;;6.50;2.17;;;;;;;15.85;28.79;100481.19;6293614;28;20048;-78
2022/04/12 13:14:02;;;;;;;;;;;;;;;15.70;26.44;100475.28;6312412;28;20048;-78
2022/04/12 13:17:04;;;;;;;7.50;2.20;;;;;;;15.50;27.37;100476.78;6316045;28;19920;-72
2022/04/12 13:20:10;;;;;;;2.13;1.88;;;;;;;15.59;27.68;100472.63;6315428;28;20056;-78
2022/04/12 13:23:10;;;;;;;4.50;2.05;;;;;;;15.55;27.64;100476.44;6340374;28;20306;-78
2022/04/12 13:26:11;;;;;;;5.15;2.03;;;;;;;15.48;27.51;100472.59;6330294;28;20077;-78
2022/04/12 13:29:12;;;;;;;4.03;1.90;;;;;;;15.69;28.92;100478.03;6298032;28;20047;-78
2022/04/12 13:32:13;;;;;;;1.98;1.70;;;;;;;15.36;26.85;100473.50;6299535;28;20052;-78
2022/04/12 13:35:17;;;;;;;3.22;1.98;;;;;;;15.04;26.39;100472.31;6306831;28;20052;-78
2022/04/12 13:38:18;;;;;;;4.38;1.95;;;;;;;15.26;27.13;100470.72;6326354;28;20086;-73
2022/04/12 13:41:18;;;;;;;5.97;1.85;;;;;;;15.81;28.28;100469.22;6324155;28;20076;-72
2022/04/12 13:44:19;;;;;;;8.48;2.20;;;;;;;15.72;27.47;100467.31;6339797;28;20048;-72
2022/04/12 13:47:20;;;;;;;3.08;2.00;;;;;;;15.20;27.94;100456.25;6324040;28;20399;-78
2022/04/12 13:50:21;;;;;;;6.40;2.17;;;;;;;15.28;27.54;100464.41;6316635;28;20040;-78
2022/04/12 13:53:24;;;;;;;3.90;1.90;;;;;;;15.32;27.49;100465.03;6280906;28;20064;-72
2022/04/12 13:56:25;;;;;;;4.35;2.10;;;;;;;15.72;27.04;100456.78;6314131;28;20447;-73
2022/04/12 13:59:26;;;;;;;3.53;1.98;;;;;;;15.54;26.41;100458.97;6297413;28;20385;-78
2022/04/12 14:02:27;;;;;;;6.20;2.00;;;;;;;15.45;26.37;100459.69;6331844;28;20052;-72
2022/04/12 14:05:28;;;;;;;3.90;2.00;;;;;;;14.86;26.97;100450.81;6321802;28;20480;-72
2022/04/12 14:08:30;;;;;;;2.45;1.80;;;;;;;14.86;26.91;100442.94;6333936;28;20056;-72